Juliaetta, ID

2:21 PM PDT on September 30, 2014 (GMT -0700)
Lewiston-Nez Perce County | Change Station
CLOSE
Current Station
Airport
Location: Lewiston,
Elevation: 1437 ft
Nearby Weather Stations

Elev 1437 ft 46.37 °N, 117.02 °W | Updated 25 minutes ago

Partly Cloudy
Partly Cloudy
65 °F
Feels Like 65 °F
N
12
Wind Variable Wind from West

Today
High -- | Low -- °F
--% Chance of Precip.
Yesterday
High -- | Low -- °F
Precip. -- in
6:44 AM 6:28 PM
Waxing Crescent, 40% visible
Pressure 29.95 in
Visibility 10.0 miles
Clouds Mostly Cloudy 6500 ft
Overcast 9000 ft
Dew Point 38 °F
Humidity 37%
Rainfall 0.12 in
Snow Depth 0 in , 0 in , 1 in
UV 1 out of 12
Pollen 6.50 out of 12
Air Quality Not available.
Flu Activity Not available.
METAR KLWS 302056Z 28010KT 10SM BKN065 OVC090 18/03 A2996 RMK AO2 SLP140 T01830033 50001

More Conditions Fewer Conditions

Pressure 29.95 in
Visibility 10.0 miles
Clouds Mostly Cloudy 6500 ft
Overcast 9000 ft
Dew Point 38 °F
Humidity 37%
Rainfall 0.12 in
Snow Depth 0 in , 0 in , 1 in
UV 1 out of 12
Pollen 6.50 out of 12
Air Quality Not available.
Flu Activity Not available.
METAR KLWS 302056Z 28010KT 10SM BKN065 OVC090 18/03 A2996 RMK AO2 SLP140 T01830033 50001

More Conditions Fewer Conditions

10-Day Weather Forecast

Almanac

Astronomy

Sep. 30, 2014 Rise Set
Actual Time 6:44 AM PDT 6:28 PM PDT
Civil Twilight 6:14 AM PDT 6:58 PM PDT
Nautical Twilight 5:39 AM PDT 7:33 PM PDT
Astronomical Twilight 5:03 AM PDT 8:09 PM PDT
Moon 1:12 PM PDT 10:47 PM PDT
Length of Visible Light 12h 44m
Length of Day
11h 44m
Tomorrow will be 3m 16s shorter.
Waxing Crescent, 40% of the Moon is Illuminated
Today
Waxing Crescent
Oct 1
First Quarter
Oct 8
Full
Oct 15
Last Quarter
Oct 23
New

Today's Extremes

State Highs State Lows

Community

WunderPhotos

Upload Photos

1,757,755 photos uploaded!

Nearby

Air Quality

  Air Quality AQ Index Pollutant
Yesterday Good
PM2.5
Tuesday Good
PM2.5
Wednesday Good
PM2.5
Thursday Good
PM2.5

Snow Depth

Station Depth Elevation
Squaw Flat 0 in 6240 ft
Myrtle Creek 0 in 3520 ft
Schwartz Lake 1 in 8620 ft
Mill Creek Summit 1 in 8800 ft
Crab Creek 113 in 6860 ft

Earthquake Activity

City Distance Mag. Time & Date
No recent earthquake activity has been reported nearby.
Minimum magnitude displayed is 2.5.

Coastal Water Temperatures

Place Temperature
No Stations Reporting

Nearby Weather Stations